createdAt,value
2023-05-04T00:00:51.925Z,901.00
2023-05-04T00:01:51.943Z,898.00
2023-05-04T00:02:52.017Z,898.00
2023-05-04T00:03:52.080Z,901.00
2023-05-04T00:04:51.923Z,899.00
2023-05-04T00:05:51.938Z,903.00
2023-05-04T00:06:51.889Z,903.00
2023-05-04T00:07:51.866Z,899.00
2023-05-04T00:08:51.888Z,895.00
2023-05-04T00:09:51.893Z,895.00
2023-05-04T00:10:51.866Z,893.00
2023-05-04T00:11:52.251Z,893.00
2023-05-04T00:12:51.923Z,892.00
2023-05-04T00:13:51.909Z,896.00
2023-05-04T00:14:51.989Z,895.00
2023-05-04T00:15:52.161Z,892.00
2023-05-04T00:16:52.081Z,888.00
2023-05-04T00:17:52.184Z,888.00
2023-05-04T00:18:52.189Z,889.00
2023-05-04T00:19:52.232Z,890.00
2023-05-04T00:20:52.250Z,895.00
2023-05-04T00:21:52.756Z,891.00
2023-05-04T00:22:52.366Z,888.00
2023-05-04T00:23:52.432Z,889.00
2023-05-04T00:24:52.444Z,887.00
2023-05-04T00:25:52.509Z,885.00
2023-05-04T00:26:52.547Z,883.00
2023-05-04T00:27:52.586Z,886.00
2023-05-04T00:28:52.629Z,885.00
2023-05-04T00:29:52.709Z,882.00
2023-05-04T00:30:52.760Z,882.00
2023-05-04T00:31:52.843Z,877.00
2023-05-04T00:32:52.931Z,875.00
2023-05-04T00:33:52.919Z,876.00
2023-05-04T00:34:52.942Z,877.00
2023-05-04T00:35:52.994Z,877.00
2023-05-04T00:36:53.055Z,876.00
2023-05-04T00:37:53.088Z,875.00
2023-05-04T00:38:53.190Z,874.00
2023-05-04T00:39:53.209Z,879.00
2023-05-04T00:40:53.277Z,877.00
2023-05-04T00:41:53.764Z,877.00
2023-05-04T00:42:53.375Z,877.00
2023-05-04T00:43:53.423Z,875.00
2023-05-04T00:44:53.468Z,874.00
2023-05-04T00:45:53.510Z,876.00
2023-05-04T00:46:53.622Z,876.00
2023-05-04T00:47:53.649Z,876.00
2023-05-04T00:48:53.675Z,873.00
2023-05-04T00:49:53.736Z,871.00
2023-05-04T00:50:53.768Z,868.00
2023-05-04T00:51:53.853Z,866.00
2023-05-04T00:52:53.904Z,865.00
2023-05-04T00:53:53.936Z,862.00
2023-05-04T00:54:53.975Z,862.00
2023-05-04T00:55:54.086Z,862.00
2023-05-04T00:56:54.101Z,861.00
2023-05-04T00:57:54.137Z,860.00
2023-05-04T00:58:54.226Z,858.00
2023-05-04T00:59:54.243Z,858.00
2023-05-04T01:00:54.289Z,859.00
2023-05-04T01:01:54.365Z,862.00
2023-05-04T01:02:54.462Z,859.00
2023-05-04T01:03:54.550Z,856.00
2023-05-04T01:04:54.500Z,853.00
2023-05-04T01:05:54.569Z,853.00
2023-05-04T01:06:54.637Z,853.00
2023-05-04T01:07:54.667Z,849.00
2023-05-04T01:08:54.734Z,848.00
2023-05-04T01:09:54.752Z,848.00
2023-05-04T01:10:54.836Z,848.00
2023-05-04T01:11:54.886Z,847.00
2023-05-04T01:12:55.028Z,843.00
2023-05-04T01:13:55.017Z,843.00
2023-05-04T01:14:55.077Z,842.00
2023-05-04T01:15:55.130Z,841.00
2023-05-04T01:16:55.225Z,841.00
2023-05-04T01:17:55.315Z,844.00
2023-05-04T01:18:55.315Z,848.00
2023-05-04T01:19:55.350Z,849.00
2023-05-04T01:20:55.524Z,849.00
2023-05-04T01:21:55.445Z,847.00
2023-05-04T01:22:55.523Z,845.00
2023-05-04T01:23:55.564Z,843.00
2023-05-04T01:24:55.643Z,840.00
2023-05-04T01:25:55.704Z,839.00
2023-05-04T01:26:55.786Z,840.00
2023-05-04T01:27:55.797Z,840.00
2023-05-04T01:28:55.863Z,842.00
2023-05-04T01:29:55.920Z,844.00
2023-05-04T01:30:56.019Z,845.00
2023-05-04T01:31:56.298Z,843.00
2023-05-04T01:32:56.125Z,844.00
2023-05-04T01:33:56.171Z,844.00
2023-05-04T01:34:56.211Z,842.00
2023-05-04T01:35:56.323Z,842.00
2023-05-04T01:36:56.336Z,841.00
2023-05-04T01:37:56.405Z,839.00
2023-05-04T01:38:56.448Z,840.00
2023-05-04T01:39:56.516Z,837.00
2023-05-04T01:40:56.546Z,835.00
2023-05-04T01:41:56.811Z,835.00
2023-05-04T01:42:56.681Z,834.00
2023-05-04T01:43:56.743Z,837.00
2023-05-04T01:44:56.779Z,834.00
2023-05-04T01:45:56.879Z,830.00
2023-05-04T01:46:57.269Z,830.00
2023-05-04T01:47:57.017Z,827.00
2023-05-04T01:48:57.058Z,825.00
2023-05-04T01:49:57.093Z,821.00
2023-05-04T01:50:57.151Z,820.00
2023-05-04T01:51:57.217Z,820.00
2023-05-04T01:52:57.250Z,822.00
2023-05-04T01:53:57.333Z,822.00
2023-05-04T01:54:57.367Z,826.00
2023-05-04T01:55:57.439Z,824.00
2023-05-04T01:56:57.800Z,822.00
2023-05-04T01:57:57.534Z,825.00
2023-05-04T01:58:57.545Z,826.00
2023-05-04T01:59:57.641Z,824.00
2023-05-04T02:00:57.686Z,822.00
2023-05-04T02:01:57.792Z,822.00
2023-05-04T02:02:57.869Z,818.00
2023-05-04T02:03:58.072Z,819.00
2023-05-04T02:04:57.885Z,821.00
2023-05-04T02:05:57.901Z,819.00
2023-05-04T02:06:57.987Z,821.00
2023-05-04T02:07:58.019Z,822.00
2023-05-04T02:08:58.074Z,822.00
2023-05-04T02:09:58.109Z,822.00
2023-05-04T02:10:58.177Z,823.00
2023-05-04T02:11:58.192Z,821.00
2023-05-04T02:12:58.400Z,819.00
2023-05-04T02:13:58.334Z,818.00
2023-05-04T02:14:58.391Z,814.00
2023-05-04T02:15:58.512Z,813.00
2023-05-04T02:16:58.552Z,813.00
2023-05-04T02:17:58.600Z,811.00
2023-05-04T02:18:58.624Z,810.00
2023-05-04T02:19:58.694Z,809.00
2023-05-04T02:20:58.779Z,810.00
2023-05-04T02:21:58.826Z,810.00
2023-05-04T02:22:58.893Z,809.00
2023-05-04T02:23:58.941Z,808.00
2023-05-04T02:24:59.100Z,804.00
2023-05-04T02:25:59.065Z,806.00
2023-05-04T02:26:59.123Z,806.00
2023-05-04T02:27:59.168Z,804.00
2023-05-04T02:28:59.251Z,806.00
2023-05-04T02:29:59.300Z,809.00
2023-05-04T02:30:59.379Z,806.00
2023-05-04T02:31:59.495Z,807.00
2023-05-04T02:32:59.510Z,807.00
2023-05-04T02:33:59.570Z,805.00
2023-05-04T02:34:59.628Z,803.00
2023-05-04T02:35:59.675Z,802.00
2023-05-04T02:36:59.734Z,799.00
2023-05-04T02:37:59.813Z,797.00
2023-05-04T02:38:59.871Z,793.00
2023-05-04T02:39:59.927Z,794.00
2023-05-04T02:41:00.028Z,793.00
2023-05-04T02:42:00.047Z,794.00
2023-05-04T02:43:00.182Z,792.00
2023-05-04T02:44:00.204Z,790.00
2023-05-04T02:45:00.283Z,793.00
2023-05-04T02:46:00.452Z,795.00
2023-05-04T02:47:00.402Z,792.00
2023-05-04T02:48:00.505Z,791.00
2023-05-04T02:49:00.534Z,792.00
2023-05-04T02:50:00.593Z,788.00
2023-05-04T02:51:00.685Z,790.00
2023-05-04T02:52:00.706Z,790.00
2023-05-04T02:53:00.762Z,789.00
2023-05-04T02:54:00.800Z,793.00
2023-05-04T02:55:00.882Z,794.00
2023-05-04T02:56:00.926Z,791.00
2023-05-04T02:57:01.103Z,794.00
2023-05-04T02:58:01.054Z,791.00
2023-05-04T02:59:01.110Z,791.00
2023-05-04T03:00:01.231Z,792.00
2023-05-04T03:01:01.295Z,790.00
2023-05-04T03:02:01.806Z,786.00
2023-05-04T03:03:01.456Z,789.00
2023-05-04T03:04:01.479Z,791.00
2023-05-04T03:05:01.484Z,791.00
2023-05-04T03:06:01.538Z,791.00
2023-05-04T03:07:01.795Z,791.00
2023-05-04T03:08:01.668Z,791.00
2023-05-04T03:09:01.740Z,788.00
2023-05-04T03:10:01.835Z,787.00
2023-05-04T03:11:01.896Z,788.00
2023-05-04T03:12:01.966Z,789.00
2023-05-04T03:13:02.163Z,787.00
2023-05-04T03:14:02.080Z,787.00
2023-05-04T03:15:02.127Z,788.00
2023-05-04T03:16:02.258Z,786.00
2023-05-04T03:17:02.294Z,786.00
2023-05-04T03:18:02.389Z,783.00
2023-05-04T03:19:02.402Z,781.00
2023-05-04T03:20:02.645Z,780.00
2023-05-04T03:21:02.511Z,780.00
2023-05-04T03:22:02.586Z,776.00
2023-05-04T03:23:02.653Z,773.00
2023-05-04T03:24:02.723Z,771.00
2023-05-04T03:25:02.792Z,771.00
2023-05-04T03:26:02.867Z,769.00
2023-05-04T03:27:03.328Z,767.00
2023-05-04T03:28:02.971Z,765.00
2023-05-04T03:29:03.023Z,765.00
2023-05-04T03:30:03.433Z,766.00
2023-05-04T03:31:03.211Z,763.00
2023-05-04T03:32:03.343Z,764.00
2023-05-04T03:33:03.369Z,768.00
2023-05-04T03:34:03.372Z,767.00
2023-05-04T03:35:04.129Z,768.00
2023-05-04T03:36:03.508Z,769.00
2023-05-04T03:37:03.829Z,770.00
2023-05-04T03:38:03.637Z,770.00
2023-05-04T03:39:03.651Z,772.00
2023-05-04T03:40:04.026Z,769.00
2023-05-04T03:41:03.812Z,767.00
2023-05-04T03:42:03.881Z,765.00
2023-05-04T03:43:03.930Z,767.00
2023-05-04T03:44:03.978Z,767.00
2023-05-04T03:45:04.530Z,766.00
2023-05-04T03:46:04.112Z,763.00
2023-05-04T03:47:04.315Z,761.00
2023-05-04T03:48:04.262Z,760.00
2023-05-04T03:49:04.241Z,758.00
2023-05-04T03:50:04.560Z,757.00
2023-05-04T03:51:04.376Z,756.00
2023-05-04T03:52:04.808Z,753.00
2023-05-04T03:53:04.489Z,748.00
2023-05-04T03:54:04.573Z,746.00
2023-05-04T03:55:04.618Z,749.00
2023-05-04T03:56:04.667Z,749.00
2023-05-04T03:57:04.825Z,749.00
2023-05-04T03:58:04.774Z,753.00
2023-05-04T03:59:04.848Z,755.00
2023-05-04T04:00:05.082Z,757.00
2023-05-04T04:01:04.958Z,755.00
2023-05-04T04:02:05.345Z,753.00
2023-05-04T04:03:05.109Z,754.00
2023-05-04T04:04:05.219Z,751.00
2023-05-04T04:05:05.189Z,749.00
2023-05-04T04:06:05.262Z,749.00
2023-05-04T04:07:05.364Z,749.00
2023-05-04T04:08:05.422Z,747.00
2023-05-04T04:09:06.311Z,745.00
2023-05-04T04:10:05.796Z,746.00
2023-05-04T04:11:05.581Z,745.00
2023-05-04T04:12:05.851Z,744.00
2023-05-04T04:13:05.746Z,743.00
2023-05-04T04:14:05.788Z,741.00
2023-05-04T04:15:05.857Z,739.00
2023-05-04T04:16:05.960Z,741.00
2023-05-04T04:17:06.342Z,740.00
2023-05-04T04:18:06.067Z,740.00
2023-05-04T04:19:06.124Z,738.00
2023-05-04T04:20:06.394Z,737.00
2023-05-04T04:21:06.227Z,736.00
2023-05-04T04:22:06.292Z,737.00
2023-05-04T04:23:06.388Z,736.00
2023-05-04T04:24:06.407Z,735.00
2023-05-04T04:25:06.478Z,735.00
2023-05-04T04:26:06.570Z,737.00
2023-05-04T04:27:06.841Z,734.00
2023-05-04T04:28:06.706Z,736.00
2023-05-04T04:29:06.769Z,734.00
2023-05-04T04:30:06.990Z,732.00
2023-05-04T04:31:06.898Z,736.00
2023-05-04T04:32:07.322Z,737.00
2023-05-04T04:33:07.113Z,735.00
2023-05-04T04:34:07.053Z,730.00
2023-05-04T04:35:07.144Z,732.00
2023-05-04T04:36:07.208Z,728.00
2023-05-04T04:37:07.238Z,726.00
2023-05-04T04:38:07.364Z,725.00
2023-05-04T04:39:07.386Z,724.00
2023-05-04T04:40:07.493Z,727.00
2023-05-04T04:41:07.563Z,727.00
2023-05-04T04:42:07.632Z,725.00
2023-05-04T04:43:07.624Z,724.00
2023-05-04T04:44:07.706Z,724.00
2023-05-04T04:45:07.781Z,726.00
2023-05-04T04:46:07.850Z,722.00
2023-05-04T04:47:08.347Z,721.00
2023-05-04T04:48:08.000Z,717.00
2023-05-04T04:49:08.088Z,718.00
2023-05-04T04:50:08.297Z,718.00
2023-05-04T04:51:08.165Z,716.00
2023-05-04T04:52:08.213Z,717.00
2023-05-04T04:53:08.282Z,717.00
2023-05-04T04:54:08.333Z,716.00
2023-05-04T04:55:08.368Z,717.00
2023-05-04T04:56:08.418Z,714.00
2023-05-04T04:57:08.461Z,715.00
2023-05-04T04:58:08.538Z,715.00
2023-05-04T04:59:08.542Z,711.00
2023-05-04T05:00:08.622Z,709.00
2023-05-04T05:01:08.731Z,711.00
2023-05-04T05:02:08.681Z,711.00
2023-05-04T05:03:08.771Z,710.00
2023-05-04T05:04:08.765Z,711.00
2023-05-04T05:05:09.022Z,707.00
2023-05-04T05:06:08.911Z,706.00
2023-05-04T05:07:09.337Z,707.00
2023-05-04T05:08:09.021Z,710.00
2023-05-04T05:09:09.131Z,711.00
2023-05-04T05:10:09.210Z,712.00
2023-05-04T05:11:09.206Z,714.00
2023-05-04T05:12:09.385Z,716.00
2023-05-04T05:13:09.413Z,712.00
2023-05-04T05:14:09.423Z,709.00
2023-05-04T05:15:09.476Z,706.00
2023-05-04T05:16:09.536Z,705.00
2023-05-04T05:17:09.880Z,704.00
2023-05-04T05:18:09.647Z,700.00
2023-05-04T05:19:09.687Z,696.00
2023-05-04T05:20:09.775Z,696.00
2023-05-04T05:21:09.796Z,692.00
2023-05-04T05:22:09.871Z,689.00
2023-05-04T05:23:09.885Z,690.00
2023-05-04T05:24:09.970Z,692.00
2023-05-04T05:25:10.011Z,691.00
2023-05-04T05:26:10.104Z,693.00
2023-05-04T05:27:10.363Z,693.00
2023-05-04T05:28:10.217Z,696.00
2023-05-04T05:29:10.273Z,698.00
2023-05-04T05:30:10.323Z,697.00
2023-05-04T05:31:10.439Z,695.00
2023-05-04T05:32:10.838Z,693.00
2023-05-04T05:33:10.563Z,696.00
2023-05-04T05:34:10.556Z,696.00
2023-05-04T05:35:10.689Z,698.00
2023-05-04T05:36:10.684Z,697.00
2023-05-04T05:37:10.731Z,696.00
2023-05-04T05:38:10.758Z,695.00
2023-05-04T05:39:10.829Z,695.00
2023-05-04T05:40:10.894Z,694.00
2023-05-04T05:41:10.909Z,694.00
2023-05-04T05:42:11.394Z,696.00
2023-05-04T05:43:11.129Z,696.00
2023-05-04T05:44:12.965Z,694.00
2023-05-04T05:45:11.196Z,693.00
2023-05-04T05:46:11.267Z,694.00
2023-05-04T05:47:11.296Z,692.00
2023-05-04T05:48:11.489Z,692.00
2023-05-04T05:49:12.328Z,692.00
2023-05-04T05:50:11.481Z,690.00
2023-05-04T05:51:11.591Z,689.00
2023-05-04T05:52:11.537Z,686.00
2023-05-04T05:53:11.583Z,682.00
2023-05-04T05:54:11.666Z,676.00
2023-05-04T05:55:11.668Z,677.00
2023-05-04T05:56:12.654Z,678.00
2023-05-04T05:57:11.633Z,678.00
2023-05-04T05:58:11.846Z,676.00
2023-05-04T05:59:11.650Z,679.00
2023-05-04T06:00:11.655Z,678.00
2023-05-04T06:01:11.622Z,674.00
2023-05-04T06:02:11.627Z,673.00
2023-05-04T06:03:11.884Z,669.00
2023-05-04T06:04:11.728Z,709.00
2023-05-04T06:05:11.710Z,714.00
2023-05-04T06:06:11.733Z,761.00
2023-05-04T06:07:11.791Z,714.00
2023-05-04T06:08:11.860Z,715.00
2023-05-04T06:09:11.933Z,763.00
2023-05-04T06:10:11.992Z,764.00
2023-05-04T06:11:12.035Z,767.00
2023-05-04T06:12:12.086Z,797.00
2023-05-04T06:13:12.433Z,816.00
2023-05-04T06:14:12.223Z,851.00
2023-05-04T06:15:12.244Z,850.00
2023-05-04T06:16:12.352Z,854.00
2023-05-04T06:17:12.356Z,870.00
2023-05-04T06:18:12.880Z,914.00
2023-05-04T06:19:12.438Z,919.00
2023-05-04T06:20:12.488Z,925.00
2023-05-04T06:21:12.527Z,948.00
2023-05-04T06:22:12.575Z,957.00
2023-05-04T06:23:12.884Z,965.00
2023-05-04T06:24:12.600Z,1023.00
2023-05-04T06:25:12.691Z,1049.00
2023-05-04T06:26:12.668Z,1058.00
2023-05-04T06:27:12.757Z,1059.00
2023-05-04T06:28:12.859Z,1061.00
2023-05-04T06:29:12.802Z,1063.00
2023-05-04T06:30:12.780Z,1095.00
2023-05-04T06:31:12.863Z,1134.00
2023-05-04T06:32:12.936Z,1174.00
2023-05-04T06:33:12.948Z,1172.00
2023-05-04T06:34:12.891Z,1171.00
2023-05-04T06:35:12.905Z,1193.00
2023-05-04T06:36:12.952Z,1219.00
2023-05-04T06:37:14.133Z,1223.00
2023-05-04T06:38:13.400Z,1229.00
2023-05-04T06:39:12.925Z,1240.00
2023-05-04T06:40:13.417Z,1296.00
2023-05-04T06:41:12.886Z,1302.00
2023-05-04T06:42:12.918Z,1305.00
2023-05-04T06:43:13.377Z,1309.00
2023-05-04T06:44:12.866Z,1319.00
2023-05-04T06:45:12.867Z,1344.00
2023-05-04T06:46:12.902Z,1366.00
2023-05-04T06:47:12.862Z,1372.00
2023-05-04T06:48:12.921Z,1374.00
2023-05-04T06:49:12.883Z,1380.00
2023-05-04T06:50:12.845Z,1481.00
2023-05-04T06:51:12.845Z,1493.00
2023-05-04T06:52:12.801Z,1333.00
2023-05-04T06:53:12.811Z,1216.00
2023-05-04T06:54:12.830Z,1112.00
2023-05-04T06:55:12.789Z,982.00
2023-05-04T06:56:12.824Z,995.00
2023-05-04T06:57:12.792Z,954.00
2023-05-04T06:58:12.908Z,962.00
2023-05-04T06:59:12.793Z,982.00
2023-05-04T07:00:12.781Z,926.00
2023-05-04T07:01:12.792Z,899.00
2023-05-04T07:02:12.758Z,901.00
2023-05-04T07:03:12.918Z,830.00
2023-05-04T07:04:12.759Z,834.00
2023-05-04T07:05:12.751Z,838.00
2023-05-04T07:06:13.428Z,770.00
2023-05-04T07:07:12.741Z,784.00
2023-05-04T07:08:12.887Z,781.00
2023-05-04T07:09:12.734Z,778.00
2023-05-04T07:10:12.716Z,766.00
2023-05-04T07:11:12.707Z,760.00
2023-05-04T07:12:12.685Z,802.00
2023-05-04T07:13:13.022Z,803.00
2023-05-04T07:14:12.701Z,789.00
2023-05-04T07:15:12.680Z,779.00
2023-05-04T07:16:12.699Z,756.00
2023-05-04T07:17:12.653Z,734.00
2023-05-04T07:18:13.149Z,728.00
2023-05-04T07:19:12.684Z,727.00
2023-05-04T07:20:12.634Z,728.00
2023-05-04T07:22:12.601Z,740.00
2023-05-04T07:23:12.871Z,752.00
2023-05-04T07:24:12.608Z,786.00
2023-05-04T07:25:12.635Z,787.00
2023-05-04T07:26:12.630Z,778.00
2023-05-04T07:27:12.622Z,784.00
2023-05-04T07:28:12.599Z,778.00
2023-05-04T07:29:12.603Z,775.00
2023-05-04T07:30:12.604Z,762.00
2023-05-04T07:31:12.595Z,742.00
2023-05-04T07:32:12.585Z,744.00
2023-05-04T07:33:12.615Z,791.00
2023-05-04T07:34:12.559Z,784.00
2023-05-04T07:35:12.845Z,766.00
2023-05-04T07:36:12.545Z,756.00
2023-05-04T07:37:12.553Z,755.00
2023-05-04T07:38:12.556Z,757.00
2023-05-04T07:39:12.536Z,756.00
2023-05-04T07:40:12.554Z,794.00
2023-05-04T07:41:12.520Z,832.00
2023-05-04T07:42:12.496Z,789.00
2023-05-04T07:43:12.899Z,761.00
2023-05-04T07:44:12.549Z,764.00
2023-05-04T07:45:12.725Z,780.00
2023-05-04T07:46:12.507Z,773.00
2023-05-04T07:47:12.481Z,775.00
2023-05-04T07:48:12.897Z,778.00
2023-05-04T07:49:12.426Z,784.00
2023-05-04T07:50:12.434Z,805.00
2023-05-04T07:51:12.449Z,799.00
2023-05-04T07:52:12.457Z,796.00
2023-05-04T07:53:12.904Z,791.00
2023-05-04T07:54:12.432Z,784.00
2023-05-04T07:55:12.390Z,769.00
2023-05-04T07:56:12.441Z,768.00
2023-05-04T07:57:12.420Z,765.00
2023-05-04T07:58:12.942Z,763.00
2023-05-04T07:59:12.408Z,756.00
2023-05-04T08:00:12.385Z,757.00
2023-05-04T08:01:12.588Z,760.00
2023-05-04T08:02:12.444Z,773.00
2023-05-04T08:03:12.394Z,781.00
2023-05-04T08:04:12.373Z,783.00
2023-05-04T08:05:12.372Z,792.00
2023-05-04T08:06:12.344Z,799.00
2023-05-04T08:07:12.378Z,814.00
2023-05-04T08:08:12.394Z,813.00
2023-05-04T08:09:12.313Z,814.00
2023-05-04T08:10:12.355Z,829.00
2023-05-04T08:11:19.986Z,837.00
2023-05-04T08:12:13.299Z,833.00
2023-05-04T08:13:12.510Z,840.00
2023-05-04T08:14:12.297Z,823.00
2023-05-04T08:15:12.286Z,813.00
2023-05-04T08:16:12.289Z,812.00
2023-05-04T08:17:12.282Z,807.00
2023-05-04T08:18:12.403Z,811.00
2023-05-04T08:19:12.323Z,818.00
2023-05-04T08:20:12.281Z,817.00
2023-05-04T08:21:12.277Z,820.00
2023-05-04T08:22:12.239Z,821.00
2023-05-04T08:23:12.923Z,822.00
2023-05-04T08:24:12.248Z,825.00
2023-05-04T08:25:12.252Z,829.00
2023-05-04T08:26:12.239Z,829.00
2023-05-04T08:27:12.225Z,829.00
2023-05-04T08:28:12.444Z,826.00
2023-05-04T08:29:12.213Z,825.00
2023-05-04T08:30:12.204Z,831.00
2023-05-04T08:31:12.251Z,828.00
2023-05-04T08:32:12.197Z,825.00
2023-05-04T08:33:12.393Z,824.00
2023-05-04T08:34:12.330Z,826.00
2023-05-04T08:35:12.172Z,942.00
2023-05-04T08:36:12.156Z,920.00
2023-05-04T08:37:12.158Z,888.00
2023-05-04T08:38:12.401Z,873.00
2023-05-04T08:39:12.134Z,864.00
2023-05-04T08:40:12.176Z,855.00
2023-05-04T08:41:12.127Z,849.00
2023-05-04T08:42:12.145Z,949.00
2023-05-04T08:43:12.125Z,943.00
2023-05-04T08:44:12.109Z,944.00
2023-05-04T08:45:12.108Z,950.00
2023-05-04T08:46:12.241Z,956.00
2023-05-04T08:47:12.090Z,949.00
2023-05-04T08:48:12.149Z,975.00
2023-05-04T08:49:12.203Z,1032.00
2023-05-04T08:50:12.256Z,1043.00
2023-05-04T08:51:12.283Z,1074.00
2023-05-04T08:52:12.359Z,1104.00
2023-05-04T08:53:12.387Z,1138.00
2023-05-04T08:54:12.471Z,1134.00
2023-05-04T08:55:12.497Z,1129.00
2023-05-04T08:56:12.539Z,1127.00
2023-05-04T08:57:12.694Z,1127.00
2023-05-04T08:58:12.690Z,1130.00
2023-05-04T08:59:12.690Z,1143.00
2023-05-04T09:00:12.717Z,1149.00
2023-05-04T09:01:12.862Z,1156.00
2023-05-04T09:02:13.003Z,1162.00
2023-05-04T09:03:12.900Z,1159.00
2023-05-04T09:04:12.868Z,1153.00
2023-05-04T09:05:13.033Z,1149.00
2023-05-04T09:06:12.957Z,1148.00
2023-05-04T09:07:12.976Z,1149.00
2023-05-04T09:08:13.002Z,1144.00
2023-05-04T09:09:13.003Z,1140.00
2023-05-04T09:10:13.033Z,1136.00
2023-05-04T09:11:13.020Z,1135.00
2023-05-04T09:12:13.029Z,1134.00
2023-05-04T09:13:13.116Z,1135.00
2023-05-04T09:14:13.065Z,1135.00
2023-05-04T09:15:13.053Z,1130.00
2023-05-04T09:16:14.813Z,1128.00
2023-05-04T09:17:13.153Z,1128.00
2023-05-04T09:18:13.095Z,1126.00
2023-05-04T09:19:13.107Z,1125.00
2023-05-04T09:20:13.083Z,1124.00
2023-05-04T09:21:13.152Z,1122.00
2023-05-04T09:22:13.054Z,1119.00
2023-05-04T09:23:13.115Z,1119.00
2023-05-04T09:24:13.089Z,1116.00
2023-05-04T09:25:13.107Z,1114.00
2023-05-04T09:26:13.067Z,1110.00
2023-05-04T09:27:13.074Z,1110.00
2023-05-04T09:28:13.061Z,1106.00
2023-05-04T09:29:13.089Z,1107.00
2023-05-04T09:30:13.051Z,1101.00
2023-05-04T09:31:13.110Z,1097.00
2023-05-04T09:32:13.082Z,1097.00
2023-05-04T09:33:13.114Z,1100.00
2023-05-04T09:34:13.941Z,1105.00
2023-05-04T09:35:25.342Z,1106.00
2023-05-04T09:36:14.086Z,1108.00
2023-05-04T09:37:13.077Z,1103.00
2023-05-04T09:38:13.068Z,1102.00
2023-05-04T09:39:13.036Z,1097.00
2023-05-04T09:40:13.044Z,1094.00
2023-05-04T09:41:13.052Z,1096.00
2023-05-04T09:42:13.023Z,1095.00
2023-05-04T09:43:13.033Z,1090.00
2023-05-04T09:44:13.036Z,1093.00
2023-05-04T09:45:13.037Z,1091.00
2023-05-04T09:46:13.033Z,1096.00
2023-05-04T09:47:12.987Z,1095.00
2023-05-04T09:48:13.010Z,1095.00
2023-05-04T09:49:12.975Z,1094.00
2023-05-04T09:50:12.984Z,1092.00
2023-05-04T09:51:12.984Z,1093.00
2023-05-04T09:52:12.987Z,1091.00
2023-05-04T09:53:13.052Z,1092.00
2023-05-04T09:54:13.052Z,1092.00
2023-05-04T09:55:12.951Z,1090.00
2023-05-04T09:56:12.950Z,1088.00
2023-05-04T09:57:13.000Z,1085.00
2023-05-04T09:58:12.948Z,1079.00
2023-05-04T09:59:12.989Z,1077.00
2023-05-04T10:00:12.926Z,1073.00
2023-05-04T10:01:12.928Z,1070.00
2023-05-04T10:02:21.984Z,1066.00
2023-05-04T10:03:13.951Z,1069.00
2023-05-04T10:04:12.900Z,1074.00
2023-05-04T10:05:12.912Z,1076.00
2023-05-04T10:06:12.882Z,1075.00
2023-05-04T10:07:12.850Z,1076.00
2023-05-04T10:08:12.856Z,1077.00
2023-05-04T10:09:12.876Z,1080.00
2023-05-04T10:10:12.846Z,1082.00
2023-05-04T10:11:12.855Z,1082.00
2023-05-04T10:12:12.838Z,1087.00
2023-05-04T10:13:12.921Z,1094.00
2023-05-04T10:14:12.853Z,1101.00
2023-05-04T10:15:12.813Z,1101.00
2023-05-04T10:16:12.875Z,1106.00
2023-05-04T10:17:13.849Z,1105.00
2023-05-04T10:18:12.801Z,1103.00
2023-05-04T10:19:12.782Z,1102.00
2023-05-04T10:20:12.772Z,1099.00
2023-05-04T10:21:12.829Z,1094.00
2023-05-04T10:22:12.763Z,1095.00
2023-05-04T10:23:12.763Z,1097.00
2023-05-04T10:24:12.789Z,1091.00
2023-05-04T10:25:12.848Z,1088.00
2023-05-04T10:26:12.740Z,1085.00
2023-05-04T10:27:12.721Z,1086.00
2023-05-04T10:28:12.715Z,1087.00
2023-05-04T10:29:12.976Z,1083.00
2023-05-04T10:30:12.731Z,1079.00
2023-05-04T10:31:12.772Z,1072.00
2023-05-04T10:32:12.797Z,1067.00
2023-05-04T10:33:12.802Z,1068.00
2023-05-04T10:34:12.806Z,1068.00
2023-05-04T10:35:12.855Z,1070.00
2023-05-04T10:36:12.854Z,1070.00
2023-05-04T10:37:12.860Z,1068.00
2023-05-04T10:38:12.874Z,1063.00
2023-05-04T10:39:12.937Z,1065.00
2023-05-04T10:40:12.940Z,1066.00
2023-05-04T10:41:13.055Z,1068.00
2023-05-04T10:42:12.995Z,1068.00
2023-05-04T10:43:12.992Z,1066.00
2023-05-04T10:44:13.033Z,1067.00
2023-05-04T10:45:13.034Z,1071.00
2023-05-04T10:46:13.100Z,1070.00
2023-05-04T10:47:13.050Z,1069.00
2023-05-04T10:48:13.172Z,1066.00
2023-05-04T10:49:13.460Z,1063.00
2023-05-04T10:50:13.140Z,1064.00
2023-05-04T10:51:13.130Z,1064.00
2023-05-04T10:52:13.190Z,1060.00
2023-05-04T10:53:13.181Z,1059.00
2023-05-04T10:54:13.181Z,1059.00
2023-05-04T10:55:13.233Z,1058.00
2023-05-04T10:56:13.245Z,1056.00
2023-05-04T10:57:13.292Z,1056.00
2023-05-04T10:58:13.281Z,1057.00
2023-05-04T10:59:13.284Z,1053.00
2023-05-04T11:00:13.346Z,1051.00
2023-05-04T11:01:13.366Z,1052.00
2023-05-04T11:02:13.411Z,1054.00
2023-05-04T11:03:13.444Z,1054.00
2023-05-04T11:04:13.380Z,1062.00
2023-05-04T11:05:13.422Z,1063.00
2023-05-04T11:06:13.452Z,1068.00
2023-05-04T11:07:13.462Z,1069.00
2023-05-04T11:08:13.428Z,1072.00
2023-05-04T11:09:13.484Z,1071.00
2023-05-04T11:10:13.509Z,1069.00
2023-05-04T11:11:13.541Z,1072.00
2023-05-04T11:12:13.587Z,1075.00
2023-05-04T11:13:13.608Z,1073.00
2023-05-04T11:14:14.008Z,1072.00
2023-05-04T11:15:13.635Z,1070.00
2023-05-04T11:16:13.745Z,1072.00
2023-05-04T11:17:26.691Z,1068.00
2023-05-04T11:18:14.688Z,1066.00
2023-05-04T11:19:13.686Z,1064.00
2023-05-04T11:20:13.761Z,1063.00
2023-05-04T11:21:13.689Z,1065.00
2023-05-04T11:22:13.792Z,1063.00
2023-05-04T11:23:13.662Z,1060.00
2023-05-04T11:24:13.693Z,1052.00
2023-05-04T11:25:13.643Z,1045.00
2023-05-04T11:26:13.697Z,1039.00
2023-05-04T11:27:13.650Z,1034.00
2023-05-04T11:28:14.297Z,1031.00
2023-05-04T11:29:13.805Z,1030.00
2023-05-04T11:30:13.728Z,1032.00
2023-05-04T11:31:13.707Z,1036.00
2023-05-04T11:32:13.600Z,1034.00
2023-05-04T11:33:13.595Z,1035.00
2023-05-04T11:34:13.644Z,1036.00
2023-05-04T11:35:13.639Z,1033.00
2023-05-04T11:36:13.693Z,1034.00
2023-05-04T11:37:13.741Z,1033.00
2023-05-04T11:38:13.777Z,1034.00
2023-05-04T11:39:13.835Z,1040.00
2023-05-04T11:40:13.934Z,1042.00
2023-05-04T11:41:14.051Z,1039.00
2023-05-04T11:42:13.903Z,1035.00
2023-05-04T11:43:13.934Z,1036.00
2023-05-04T11:44:13.953Z,1034.00
2023-05-04T11:45:13.994Z,1035.00
2023-05-04T11:46:14.107Z,1033.00
2023-05-04T11:47:14.060Z,1030.00
2023-05-04T11:48:14.682Z,1027.00
2023-05-04T11:49:14.113Z,1023.00
2023-05-04T11:50:14.278Z,1019.00
2023-05-04T11:51:14.169Z,1020.00
2023-05-04T11:52:14.211Z,1022.00
2023-05-04T11:53:14.239Z,1024.00
2023-05-04T11:54:14.252Z,1024.00
2023-05-04T11:55:14.326Z,1022.00
2023-05-04T11:56:14.317Z,1019.00
2023-05-04T11:57:14.365Z,1014.00
2023-05-04T11:58:14.408Z,1013.00
2023-05-04T11:59:14.487Z,1013.00
2023-05-04T12:00:14.501Z,1012.00
2023-05-04T12:01:14.469Z,1013.00
2023-05-04T12:02:14.573Z,1014.00
2023-05-04T12:03:14.655Z,1016.00
2023-05-04T12:04:14.689Z,1017.00
2023-05-04T12:05:14.624Z,1021.00
2023-05-04T12:06:14.648Z,1026.00
2023-05-04T12:07:15.646Z,1024.00
2023-05-04T12:08:14.658Z,1025.00
2023-05-04T12:09:14.631Z,1026.00
2023-05-04T12:10:14.642Z,1021.00
2023-05-04T12:11:14.696Z,1017.00
2023-05-04T12:12:14.583Z,1021.00
2023-05-04T12:13:14.662Z,1016.00
2023-05-04T12:14:14.616Z,1014.00
2023-05-04T12:15:14.576Z,1010.00
2023-05-04T12:16:14.638Z,1011.00
2023-05-04T12:17:14.640Z,1006.00
2023-05-04T12:18:14.545Z,1002.00
2023-05-04T12:19:14.567Z,999.00
2023-05-04T12:20:14.559Z,998.00
2023-05-04T12:21:14.576Z,996.00
2023-05-04T12:22:14.613Z,994.00